Sea Success — VRS4325 — position and weather

sailwx.info

Track history (hours):
 
Tides and Currents Weather Stations Pressure Air Temp Water Temp Dewpoint Dewpoint Depression Visibility Wind Speed Wind Dir Waves Ship Positions

Sea Success

Last reported at 2015-Jul-02 02:33 UTC. Time now 2015-Jul-02 03:36 UTC.
Position N 22°17' E 114°10'.

Length 27 m.

Type: High speed craft. MMSI: 477995071.

Date/timePositionNaut miles runAvg speedWind from/ knotsBaromVisibWave heightAir tempDewpointWater temp
2015-Jul-02 02:33N 22°17' E 114°10'4 3.3
2015-Jul-02 01:14N 22°17' E 114°05'2 2.4
2015-Jul-02 00:11N 22°17' E 114°02'710.8
2015-Jul-01 23:33N 22°17' E 114°10'0 0.5
2015-Jul-01 22:33N 22°18' E 114°09'7 0.8
2015-Jul-01 14:05N 22°17' E 114°02'5 9.6
2015-Jul-01 13:34N 22°17' E 114°08'1 1.3
2015-Jul-01 12:34N 22°17' E 114°06'4 3.5
2015-Jul-01 11:25N 22°17' E 114°02'7 8.2
2015-Jul-01 10:34N 22°17' E 114°10'7 6.8
2015-Jul-01 09:32N 22°17' E 114°02'7 7.1
2015-Jul-01 08:34N 22°17' E 114°09'0 0.0
2015-Jul-01 07:33N 22°17' E 114°09'0 0.0
2015-Jul-01 06:33N 22°17' E 114°09'0 0.0
2015-Jul-01 05:33N 22°17' E 114°09'7 6.9
2015-Jul-01 04:33N 22°16' E 114°02'7 6.8
2015-Jul-01 03:34N 22°17' E 114°09'3 2.6
2015-Jul-01 02:33N 22°17' E 114°06'3 3.1
2015-Jul-01 01:33N 22°18' E 114°09'0 0.0
2015-Jul-01 00:33N 22°18' E 114°09'1 1.2
2015-Jun-30 23:34N 22°19' E 114°09'1 1.3
2015-Jun-30 22:33N 22°18' E 114°09'0 0.0
2015-Jun-30 21:33N 22°18' E 114°09'0 0.0
2015-Jun-30 20:33N 22°18' E 114°09'0 0.0
2015-Jun-30 19:33N 22°18' E 114°09'0 0.0
2015-Jun-30 18:33N 22°18' E 114°09'0 0.0
2015-Jun-30 17:33N 22°18' E 114°09'0 0.0
2015-Jun-30 16:33N 22°18' E 114°09'0 0.0
2015-Jun-30 15:34N 22°18' E 114°09'6 5.4
2015-Jun-30 14:30N 22°17' E 114°03'1 0.9
2015-Jun-30 13:33N 22°17' E 114°04'3 2.0
2015-Jun-30 12:14N 22°16' E 114°02'710.8
2015-Jun-30 11:33N 22°17' E 114°10'7 6.0
2015-Jun-30 10:25N 22°17' E 114°02'7 7.8
2015-Jun-30 09:33N 22°18' E 114°09'0 0.4
2015-Jun-30 08:33N 22°18' E 114°09'1 0.2
2015-Jun-30 05:33N 22°17' E 114°10'7 3.2
2015-Jun-30 03:18N 22°16' E 114°02'7 9.8
2015-Jun-30 02:33N 22°17' E 114°10'7 5.4
2015-Jun-30 01:19N 22°16' E 114°02'1 1.0
2015-Jun-30 00:30N 22°17' E 114°03'6 6.2
2015-Jun-29 23:33N 22°17' E 114°10'5 4.7
2015-Jun-29 22:31N 22°17' E 114°04'0 0.0
2015-Jun-29 13:33N 22°17' E 114°05'3 2.4
2015-Jun-29 12:12N 22°16' E 114°02'811.9
2015-Jun-29 11:34N 22°17' E 114°10'7 5.9
2015-Jun-29 10:24N 22°17' E 114°02'7 7.7
2015-Jun-29 09:33N 22°18' E 114°09'0 0.4
2015-Jun-29 08:33N 22°18' E 114°09'0 0.1
2015-Jun-29 05:33N 22°17' E 114°10'0 0.0
2015-Jun-29 02:33N 22°17' E 114°10'8 6.3
2015-Jun-29 01:21N 22°16' E 114°02'3 3.8
2015-Jun-29 00:33N 22°17' E 114°05'5 4.6
2015-Jun-28 23:33N 22°17' E 114°10'6 5.3
2015-Jun-28 22:30N 22°17' E 114°04'1 0.2
2015-Jun-28 14:04N 22°17' E 114°02'510.2
2015-Jun-28 13:33N 22°17' E 114°08'1 1.2
2015-Jun-28 12:33N 22°17' E 114°06'5 3.6
2015-Jun-28 11:15N 22°16' E 114°02'710.7
2015-Jun-28 10:33N 22°17' E 114°10'7 7.1
2015-Jun-28 09:33N 22°16' E 114°02'7 7.1
2015-Jun-28 08:33N 22°17' E 114°09'0 0.0
2015-Jun-28 07:33N 22°17' E 114°09'0 0.0
2015-Jun-28 06:33N 22°17' E 114°09'0 0.0
2015-Jun-28 05:33N 22°17' E 114°09'7 6.8
2015-Jun-28 04:33N 22°17' E 114°02'6 6.3
2015-Jun-28 03:33N 22°18' E 114°09'2 2.1
2015-Jun-28 02:33N 22°17' E 114°06'3 2.8
2015-Jun-28 01:33N 22°17' E 114°09'0 0.0
2015-Jun-28 00:33N 22°17' E 114°09'2 2.3
2015-Jun-27 23:33N 22°20' E 114°09'4 0.4
2015-Jun-27 13:32N 22°17' E 114°05'3 2.5
2015-Jun-27 12:11N 22°16' E 114°02'711.8
2015-Jun-27 11:33N 22°17' E 114°10'7 5.9
2015-Jun-27 10:24N 22°17' E 114°02'7 8.0
2015-Jun-27 09:33N 22°17' E 114°09'0 0.1
2015-Jun-27 08:33N 22°17' E 114°10'7 3.3
2015-Jun-27 06:19N 22°16' E 114°02'7 9.7
2015-Jun-27 05:33N 22°17' E 114°10'7 3.3
2015-Jun-27 03:19N 22°16' E 114°02'7 9.7
2015-Jun-27 02:33N 22°17' E 114°10'8 6.6
2015-Jun-27 01:24N 22°16' E 114°02'2 2.4
2015-Jun-27 00:32N 22°17' E 114°04'6 5.8
2015-Jun-26 23:33N 22°17' E 114°10'6 6.0
2015-Jun-26 22:32N 22°17' E 114°03'6 0.8
2015-Jun-26 14:32N 22°17' E 114°10'4 3.6
2015-Jun-26 13:31N 22°17' E 114°06'4 1.9
2015-Jun-26 11:33N 22°17' E 114°10'7 5.7
2015-Jun-26 10:23N 22°17' E 114°02'6 7.7
2015-Jun-26 09:33N 22°18' E 114°09'0 0.1
2015-Jun-26 08:33N 22°18' E 114°09'7 3.3
2015-Jun-26 06:20N 22°16' E 114°02'7 9.5
2015-Jun-26 05:33N 22°17' E 114°10'0 0.0
2015-Jun-26 02:33N 22°17' E 114°10'7 6.3
2015-Jun-26 01:22N 22°16' E 114°02'1 0.8
2015-Jun-26 00:10N 22°17' E 114°02'711.0
2015-Jun-25 23:33N 22°17' E 114°10'4 3.6
2015-Jun-25 22:31N 22°17' E 114°06'0 0.1
2015-Jun-25 13:33N 22°17' E 114°05'4 2.1
2015-Jun-25 11:33N 22°17' E 114°10'4 3.4
2015-Jun-25 10:19N 22°17' E 114°05'4 4.9
2015-Jun-25 09:33N 22°18' E 114°09'0 0.2
2015-Jun-25 08:33N 22°18' E 114°09'0 0.1
2015-Jun-25 05:32N 22°17' E 114°10'1 0.2
2015-Jun-25 02:33N 22°18' E 114°09'2 1.7
2015-Jun-25 01:11N 22°17' E 114°06'4 3.9
2015-Jun-25 00:10N 22°17' E 114°02'711.4
2015-Jun-24 23:33N 22°17' E 114°10'3 3.1
2015-Jun-24 22:32N 22°17' E 114°06'0 0.0
2015-Jun-24 13:31N 22°17' E 114°06'4 1.8
2015-Jun-24 11:33N 22°17' E 114°10'4 3.2
2015-Jun-24 10:17N 22°17' E 114°05'4 2.4
2015-Jun-24 08:33N 22°17' E 114°10'0 0.2
2015-Jun-24 07:33N 22°17' E 114°09'0 0.0
2015-Jun-24 06:33N 22°17' E 114°09'0 0.0
2015-Jun-24 05:33N 22°17' E 114°09'0 0.0
2015-Jun-24 04:33N 22°17' E 114°09'0 0.2
2015-Jun-24 03:33N 22°18' E 114°09'0 0.3
2015-Jun-24 02:33N 22°18' E 114°09'3 2.3
2015-Jun-24 01:09N 22°17' E 114°06'3 2.2
2015-Jun-23 23:33N 22°17' E 114°10'3 2.9
2015-Jun-23 22:33N 22°17' E 114°06'1 0.0
2015-Jun-22 13:31N 22°17' E 114°05'4 2.1
2015-Jun-22 11:33N 22°17' E 114°10'7 5.8
2015-Jun-22 10:23N 22°17' E 114°02'6 7.8
2015-Jun-22 09:33N 22°18' E 114°09'0 0.5
2015-Jun-22 08:34N 22°18' E 114°09'1 0.3
2015-Jun-22 05:28N 22°17' E 114°10'0 0.0
2015-Jun-22 02:33N 22°17' E 114°10'  
Track history (hours):
 
Tides and Currents Weather Stations Pressure Air Temp Water Temp Dewpoint Dewpoint Depression Visibility Wind Speed Wind Dir Waves Ship Positions

Sea Success

Last reported at 2015-Jul-02 02:33 UTC. Time now 2015-Jul-02 03:36 UTC.
Position N 22°17' E 114°10'.

Length 27 m.

Type: High speed craft. MMSI: 477995071.

Date/timePositionNaut miles runAvg speedWind from/ knotsBaromVisibWave heightAir tempDewpointWater temp
2015-Jul-02 02:33N 22°17' E 114°10'4 3.3
2015-Jul-02 01:14N 22°17' E 114°05'2 2.4
2015-Jul-02 00:11N 22°17' E 114°02'710.8
2015-Jul-01 23:33N 22°17' E 114°10'0 0.5
2015-Jul-01 22:33N 22°18' E 114°09'7 0.8
2015-Jul-01 14:05N 22°17' E 114°02'5 9.6
2015-Jul-01 13:34N 22°17' E 114°08'1 1.3
2015-Jul-01 12:34N 22°17' E 114°06'4 3.5
2015-Jul-01 11:25N 22°17' E 114°02'7 8.2
2015-Jul-01 10:34N 22°17' E 114°10'7 6.8
2015-Jul-01 09:32N 22°17' E 114°02'7 7.1
2015-Jul-01 08:34N 22°17' E 114°09'0 0.0
2015-Jul-01 07:33N 22°17' E 114°09'0 0.0
2015-Jul-01 06:33N 22°17' E 114°09'0 0.0
2015-Jul-01 05:33N 22°17' E 114°09'7 6.9
2015-Jul-01 04:33N 22°16' E 114°02'7 6.8
2015-Jul-01 03:34N 22°17' E 114°09'3 2.6
2015-Jul-01 02:33N 22°17' E 114°06'3 3.1
2015-Jul-01 01:33N 22°18' E 114°09'0 0.0
2015-Jul-01 00:33N 22°18' E 114°09'1 1.2
2015-Jun-30 23:34N 22°19' E 114°09'1 1.3
2015-Jun-30 22:33N 22°18' E 114°09'0 0.0
2015-Jun-30 21:33N 22°18' E 114°09'0 0.0
2015-Jun-30 20:33N 22°18' E 114°09'0 0.0
2015-Jun-30 19:33N 22°18' E 114°09'0 0.0
2015-Jun-30 18:33N 22°18' E 114°09'0 0.0
2015-Jun-30 17:33N 22°18' E 114°09'0 0.0
2015-Jun-30 16:33N 22°18' E 114°09'0 0.0
2015-Jun-30 15:34N 22°18' E 114°09'6 5.4
2015-Jun-30 14:30N 22°17' E 114°03'1 0.9
2015-Jun-30 13:33N 22°17' E 114°04'3 2.0
2015-Jun-30 12:14N 22°16' E 114°02'710.8
2015-Jun-30 11:33N 22°17' E 114°10'7 6.0
2015-Jun-30 10:25N 22°17' E 114°02'7 7.8
2015-Jun-30 09:33N 22°18' E 114°09'0 0.4
2015-Jun-30 08:33N 22°18' E 114°09'1 0.2
2015-Jun-30 05:33N 22°17' E 114°10'7 3.2
2015-Jun-30 03:18N 22°16' E 114°02'7 9.8
2015-Jun-30 02:33N 22°17' E 114°10'7 5.4
2015-Jun-30 01:19N 22°16' E 114°02'1 1.0
2015-Jun-30 00:30N 22°17' E 114°03'6 6.2
2015-Jun-29 23:33N 22°17' E 114°10'5 4.7
2015-Jun-29 22:31N 22°17' E 114°04'0 0.0
2015-Jun-29 13:33N 22°17' E 114°05'3 2.4
2015-Jun-29 12:12N 22°16' E 114°02'811.9
2015-Jun-29 11:34N 22°17' E 114°10'7 5.9
2015-Jun-29 10:24N 22°17' E 114°02'7 7.7
2015-Jun-29 09:33N 22°18' E 114°09'0 0.4
2015-Jun-29 08:33N 22°18' E 114°09'0 0.1
2015-Jun-29 05:33N 22°17' E 114°10'0 0.0
2015-Jun-29 02:33N 22°17' E 114°10'8 6.3
2015-Jun-29 01:21N 22°16' E 114°02'3 3.8
2015-Jun-29 00:33N 22°17' E 114°05'5 4.6
2015-Jun-28 23:33N 22°17' E 114°10'6 5.3
2015-Jun-28 22:30N 22°17' E 114°04'1 0.2
2015-Jun-28 14:04N 22°17' E 114°02'510.2
2015-Jun-28 13:33N 22°17' E 114°08'1 1.2
2015-Jun-28 12:33N 22°17' E 114°06'5 3.6
2015-Jun-28 11:15N 22°16' E 114°02'710.7
2015-Jun-28 10:33N 22°17' E 114°10'7 7.1
2015-Jun-28 09:33N 22°16' E 114°02'7 7.1
2015-Jun-28 08:33N 22°17' E 114°09'0 0.0
2015-Jun-28 07:33N 22°17' E 114°09'0 0.0
2015-Jun-28 06:33N 22°17' E 114°09'0 0.0
2015-Jun-28 05:33N 22°17' E 114°09'7 6.8
2015-Jun-28 04:33N 22°17' E 114°02'6 6.3
2015-Jun-28 03:33N 22°18' E 114°09'2 2.1
2015-Jun-28 02:33N 22°17' E 114°06'3 2.8
2015-Jun-28 01:33N 22°17' E 114°09'0 0.0
2015-Jun-28 00:33N 22°17' E 114°09'2 2.3
2015-Jun-27 23:33N 22°20' E 114°09'4 0.4
2015-Jun-27 13:32N 22°17' E 114°05'3 2.5
2015-Jun-27 12:11N 22°16' E 114°02'711.8
2015-Jun-27 11:33N 22°17' E 114°10'7 5.9
2015-Jun-27 10:24N 22°17' E 114°02'7 8.0
2015-Jun-27 09:33N 22°17' E 114°09'0 0.1
2015-Jun-27 08:33N 22°17' E 114°10'7 3.3
2015-Jun-27 06:19N 22°16' E 114°02'7 9.7
2015-Jun-27 05:33N 22°17' E 114°10'7 3.3
2015-Jun-27 03:19N 22°16' E 114°02'7 9.7
2015-Jun-27 02:33N 22°17' E 114°10'8 6.6
2015-Jun-27 01:24N 22°16' E 114°02'2 2.4
2015-Jun-27 00:32N 22°17' E 114°04'6 5.8
2015-Jun-26 23:33N 22°17' E 114°10'6 6.0
2015-Jun-26 22:32N 22°17' E 114°03'6 0.8
2015-Jun-26 14:32N 22°17' E 114°10'4 3.6
2015-Jun-26 13:31N 22°17' E 114°06'4 1.9
2015-Jun-26 11:33N 22°17' E 114°10'7 5.7
2015-Jun-26 10:23N 22°17' E 114°02'6 7.7
2015-Jun-26 09:33N 22°18' E 114°09'0 0.1
2015-Jun-26 08:33N 22°18' E 114°09'7 3.3
2015-Jun-26 06:20N 22°16' E 114°02'7 9.5
2015-Jun-26 05:33N 22°17' E 114°10'0 0.0
2015-Jun-26 02:33N 22°17' E 114°10'7 6.3
2015-Jun-26 01:22N 22°16' E 114°02'1 0.8
2015-Jun-26 00:10N 22°17' E 114°02'711.0
2015-Jun-25 23:33N 22°17' E 114°10'4 3.6
2015-Jun-25 22:31N 22°17' E 114°06'0 0.1
2015-Jun-25 13:33N 22°17' E 114°05'4 2.1
2015-Jun-25 11:33N 22°17' E 114°10'4 3.4
2015-Jun-25 10:19N 22°17' E 114°05'4 4.9
2015-Jun-25 09:33N 22°18' E 114°09'0 0.2
2015-Jun-25 08:33N 22°18' E 114°09'0 0.1
2015-Jun-25 05:32N 22°17' E 114°10'1 0.2
2015-Jun-25 02:33N 22°18' E 114°09'2 1.7
2015-Jun-25 01:11N 22°17' E 114°06'4 3.9
2015-Jun-25 00:10N 22°17' E 114°02'711.4
2015-Jun-24 23:33N 22°17' E 114°10'3 3.1
2015-Jun-24 22:32N 22°17' E 114°06'0 0.0
2015-Jun-24 13:31N 22°17' E 114°06'4 1.8
2015-Jun-24 11:33N 22°17' E 114°10'4 3.2
2015-Jun-24 10:17N 22°17' E 114°05'4 2.4
2015-Jun-24 08:33N 22°17' E 114°10'0 0.2
2015-Jun-24 07:33N 22°17' E 114°09'0 0.0
2015-Jun-24 06:33N 22°17' E 114°09'0 0.0
2015-Jun-24 05:33N 22°17' E 114°09'0 0.0
2015-Jun-24 04:33N 22°17' E 114°09'0 0.2
2015-Jun-24 03:33N 22°18' E 114°09'0 0.3
2015-Jun-24 02:33N 22°18' E 114°09'3 2.3
2015-Jun-24 01:09N 22°17' E 114°06'3 2.2
2015-Jun-23 23:33N 22°17' E 114°10'3 2.9
2015-Jun-23 22:33N 22°17' E 114°06'1 0.0
2015-Jun-22 13:31N 22°17' E 114°05'4 2.1
2015-Jun-22 11:33N 22°17' E 114°10'7 5.8
2015-Jun-22 10:23N 22°17' E 114°02'6 7.8
2015-Jun-22 09:33N 22°18' E 114°09'0 0.5
2015-Jun-22 08:34N 22°18' E 114°09'1 0.3
2015-Jun-22 05:28N 22°17' E 114°10'0 0.0
2015-Jun-22 02:33N 22°17' E 114°10'  

Dump ship's entire track history